sensor_id;sensor_type;location;lat;lon;timestamp;P1;durP1;ratioP1;P2;durP2;ratioP2
16906;SDS011;8570;52.380;4.654;2023-06-22T00:03:44;27.52;;;21.63;;
16906;SDS011;8570;52.380;4.654;2023-06-22T00:08:49;27.27;;;21.98;;
16906;SDS011;8570;52.380;4.654;2023-06-22T00:13:51;28.77;;;22.45;;
16906;SDS011;8570;52.380;4.654;2023-06-22T00:18:54;34.83;;;24.15;;
16906;SDS011;8570;52.380;4.654;2023-06-22T00:24:04;29.27;;;23.05;;
16906;SDS011;8570;52.380;4.654;2023-06-22T00:29:07;31.55;;;23.10;;
16906;SDS011;8570;52.380;4.654;2023-06-22T00:34:10;30.23;;;23.98;;
16906;SDS011;8570;52.380;4.654;2023-06-22T00:39:13;31.73;;;24.20;;
16906;SDS011;8570;52.380;4.654;2023-06-22T00:44:15;30.85;;;24.60;;
16906;SDS011;8570;52.380;4.654;2023-06-22T00:49:18;37.28;;;26.55;;
16906;SDS011;8570;52.380;4.654;2023-06-22T00:54:20;39.42;;;29.17;;
16906;SDS011;8570;52.380;4.654;2023-06-22T00:59:24;36.42;;;28.65;;
16906;SDS011;8570;52.380;4.654;2023-06-22T01:04:33;33.97;;;27.33;;
16906;SDS011;8570;52.380;4.654;2023-06-22T01:09:39;34.35;;;26.05;;
16906;SDS011;8570;52.380;4.654;2023-06-22T01:14:49;37.72;;;26.67;;
16906;SDS011;8570;52.380;4.654;2023-06-22T01:19:59;34.10;;;27.30;;
16906;SDS011;8570;52.380;4.654;2023-06-22T01:25:07;35.40;;;26.33;;
16906;SDS011;8570;52.380;4.654;2023-06-22T01:30:15;35.33;;;27.02;;
16906;SDS011;8570;52.380;4.654;2023-06-22T01:35:18;37.22;;;28.75;;
16906;SDS011;8570;52.380;4.654;2023-06-22T01:40:21;35.60;;;28.08;;
16906;SDS011;8570;52.380;4.654;2023-06-22T01:45:26;36.65;;;28.27;;
16906;SDS011;8570;52.380;4.654;2023-06-22T01:50:28;38.80;;;29.67;;
16906;SDS011;8570;52.380;4.654;2023-06-22T01:55:30;42.40;;;31.77;;
16906;SDS011;8570;52.380;4.654;2023-06-22T02:00:36;39.30;;;30.85;;
16906;SDS011;8570;52.380;4.654;2023-06-22T02:05:43;43.08;;;30.50;;
16906;SDS011;8570;52.380;4.654;2023-06-22T02:10:51;36.13;;;27.08;;
16906;SDS011;8570;52.380;4.654;2023-06-22T02:15:57;35.63;;;27.35;;
16906;SDS011;8570;52.380;4.654;2023-06-22T02:20:59;35.60;;;27.52;;
16906;SDS011;8570;52.380;4.654;2023-06-22T02:26:01;34.45;;;26.85;;
16906;SDS011;8570;52.380;4.654;2023-06-22T02:31:06;43.00;;;28.80;;
16906;SDS011;8570;52.380;4.654;2023-06-22T02:36:07;35.17;;;27.83;;
16906;SDS011;8570;52.380;4.654;2023-06-22T02:41:13;38.40;;;27.75;;
16906;SDS011;8570;52.380;4.654;2023-06-22T02:46:19;35.47;;;27.58;;
16906;SDS011;8570;52.380;4.654;2023-06-22T02:51:22;32.97;;;26.23;;
16906;SDS011;8570;52.380;4.654;2023-06-22T02:56:24;32.67;;;26.02;;
16906;SDS011;8570;52.380;4.654;2023-06-22T03:01:27;33.80;;;24.52;;
16906;SDS011;8570;52.380;4.654;2023-06-22T03:06:30;34.03;;;26.00;;
16906;SDS011;8570;52.380;4.654;2023-06-22T03:11:32;34.92;;;25.85;;
16906;SDS011;8570;52.380;4.654;2023-06-22T03:16:36;39.22;;;28.38;;
16906;SDS011;8570;52.380;4.654;2023-06-22T03:21:38;35.08;;;26.67;;
16906;SDS011;8570;52.380;4.654;2023-06-22T03:26:40;33.75;;;27.42;;
16906;SDS011;8570;52.380;4.654;2023-06-22T03:31:44;33.55;;;26.80;;
16906;SDS011;8570;52.380;4.654;2023-06-22T03:36:48;36.50;;;27.77;;
16906;SDS011;8570;52.380;4.654;2023-06-22T03:41:50;32.45;;;24.77;;
16906;SDS011;8570;52.380;4.654;2023-06-22T03:46:53;34.70;;;25.85;;
16906;SDS011;8570;52.380;4.654;2023-06-22T03:51:55;36.03;;;28.20;;
16906;SDS011;8570;52.380;4.654;2023-06-22T03:56:57;32.83;;;24.33;;
16906;SDS011;8570;52.380;4.654;2023-06-22T04:02:01;31.27;;;24.33;;
16906;SDS011;8570;52.380;4.654;2023-06-22T04:07:03;31.33;;;24.65;;
16906;SDS011;8570;52.380;4.654;2023-06-22T04:12:06;32.10;;;25.10;;
16906;SDS011;8570;52.380;4.654;2023-06-22T04:17:10;32.42;;;24.33;;
16906;SDS011;8570;52.380;4.654;2023-06-22T04:22:15;32.40;;;25.73;;
16906;SDS011;8570;52.380;4.654;2023-06-22T04:27:17;32.63;;;26.05;;
16906;SDS011;8570;52.380;4.654;2023-06-22T04:32:24;33.67;;;26.77;;
16906;SDS011;8570;52.380;4.654;2023-06-22T04:37:28;35.88;;;26.88;;
16906;SDS011;8570;52.380;4.654;2023-06-22T04:42:33;34.13;;;25.35;;
16906;SDS011;8570;52.380;4.654;2023-06-22T04:47:37;35.05;;;26.33;;
16906;SDS011;8570;52.380;4.654;2023-06-22T04:52:39;34.95;;;28.00;;
16906;SDS011;8570;52.380;4.654;2023-06-22T04:57:41;33.65;;;27.98;;
16906;SDS011;8570;52.380;4.654;2023-06-22T05:02:50;46.83;;;31.85;;
16906;SDS011;8570;52.380;4.654;2023-06-22T05:07:52;41.10;;;30.35;;
16906;SDS011;8570;52.380;4.654;2023-06-22T05:12:55;39.97;;;30.27;;
16906;SDS011;8570;52.380;4.654;2023-06-22T05:17:58;43.30;;;29.95;;
16906;SDS011;8570;52.380;4.654;2023-06-22T05:23:05;38.90;;;29.63;;
16906;SDS011;8570;52.380;4.654;2023-06-22T05:28:07;36.70;;;28.10;;
16906;SDS011;8570;52.380;4.654;2023-06-22T05:33:12;39.50;;;29.17;;
16906;SDS011;8570;52.380;4.654;2023-06-22T05:38:14;38.80;;;30.35;;
16906;SDS011;8570;52.380;4.654;2023-06-22T05:43:16;36.00;;;27.50;;
16906;SDS011;8570;52.380;4.654;2023-06-22T05:48:20;39.83;;;28.73;;
16906;SDS011;8570;52.380;4.654;2023-06-22T05:53:22;37.53;;;27.60;;
16906;SDS011;8570;52.380;4.654;2023-06-22T05:58:24;35.65;;;27.35;;
16906;SDS011;8570;52.380;4.654;2023-06-22T06:03:27;35.53;;;28.75;;
16906;SDS011;8570;52.380;4.654;2023-06-22T06:08:32;40.40;;;28.13;;
16906;SDS011;8570;52.380;4.654;2023-06-22T06:13:34;36.97;;;27.25;;
16906;SDS011;8570;52.380;4.654;2023-06-22T06:18:38;37.05;;;28.25;;
16906;SDS011;8570;52.380;4.654;2023-06-22T06:23:40;31.38;;;25.92;;
16906;SDS011;8570;52.380;4.654;2023-06-22T06:28:42;39.13;;;29.40;;
16906;SDS011;8570;52.380;4.654;2023-06-22T06:33:46;34.03;;;27.85;;
16906;SDS011;8570;52.380;4.654;2023-06-22T06:38:48;36.47;;;27.70;;
16906;SDS011;8570;52.380;4.654;2023-06-22T06:43:50;37.10;;;29.48;;
16906;SDS011;8570;52.380;4.654;2023-06-22T06:48:54;33.33;;;27.27;;
16906;SDS011;8570;52.380;4.654;2023-06-22T06:53:56;40.80;;;30.20;;
16906;SDS011;8570;52.380;4.654;2023-06-22T06:59:03;35.58;;;27.58;;
16906;SDS011;8570;52.380;4.654;2023-06-22T07:04:06;34.28;;;24.48;;
16906;SDS011;8570;52.380;4.654;2023-06-22T07:09:09;29.27;;;23.05;;
16906;SDS011;8570;52.380;4.654;2023-06-22T07:14:11;32.10;;;22.17;;
16906;SDS011;8570;52.380;4.654;2023-06-22T07:19:14;27.52;;;21.25;;
16906;SDS011;8570;52.380;4.654;2023-06-22T07:24:16;17.90;;;14.20;;
16906;SDS011;8570;52.380;4.654;2023-06-22T07:29:20;16.60;;;14.10;;
16906;SDS011;8570;52.380;4.654;2023-06-22T07:34:26;17.85;;;12.57;;
16906;SDS011;8570;52.380;4.654;2023-06-22T07:39:28;16.80;;;12.43;;
16906;SDS011;8570;52.380;4.654;2023-06-22T07:44:30;17.17;;;13.57;;
16906;SDS011;8570;52.380;4.654;2023-06-22T07:49:38;15.70;;;11.40;;
16906;SDS011;8570;52.380;4.654;2023-06-22T07:54:40;15.32;;;11.38;;
16906;SDS011;8570;52.380;4.654;2023-06-22T07:59:42;13.48;;;11.45;;
16906;SDS011;8570;52.380;4.654;2023-06-22T08:04:45;16.80;;;13.25;;
16906;SDS011;8570;52.380;4.654;2023-06-22T08:09:47;18.08;;;13.18;;
16906;SDS011;8570;52.380;4.654;2023-06-22T08:14:51;18.27;;;14.40;;
16906;SDS011;8570;52.380;4.654;2023-06-22T08:19:55;16.25;;;14.23;;
16906;SDS011;8570;52.380;4.654;2023-06-22T08:24:57;21.75;;;15.07;;
16906;SDS011;8570;52.380;4.654;2023-06-22T08:29:59;23.50;;;20.92;;
16906;SDS011;8570;52.380;4.654;2023-06-22T08:35:10;21.10;;;18.90;;
16906;SDS011;8570;52.380;4.654;2023-06-22T08:40:15;19.33;;;17.27;;
16906;SDS011;8570;52.380;4.654;2023-06-22T08:45:19;19.92;;;15.07;;
16906;SDS011;8570;52.380;4.654;2023-06-22T08:50:25;18.08;;;14.10;;
16906;SDS011;8570;52.380;4.654;2023-06-22T08:55:27;22.77;;;12.88;;
16906;SDS011;8570;52.380;4.654;2023-06-22T09:00:29;17.83;;;12.80;;
16906;SDS011;8570;52.380;4.654;2023-06-22T09:05:36;15.27;;;11.63;;
16906;SDS011;8570;52.380;4.654;2023-06-22T09:10:39;19.13;;;12.57;;
16906;SDS011;8570;52.380;4.654;2023-06-22T09:15:41;13.32;;;11.32;;
16906;SDS011;8570;52.380;4.654;2023-06-22T09:20:44;11.52;;;10.32;;
16906;SDS011;8570;52.380;4.654;2023-06-22T09:25:47;11.48;;;10.25;;
16906;SDS011;8570;52.380;4.654;2023-06-22T09:30:49;10.38;;;8.50;;
16906;SDS011;8570;52.380;4.654;2023-06-22T09:35:52;14.13;;;10.90;;
16906;SDS011;8570;52.380;4.654;2023-06-22T09:40:54;12.18;;;10.98;;
16906;SDS011;8570;52.380;4.654;2023-06-22T09:45:59;15.38;;;12.07;;
16906;SDS011;8570;52.380;4.654;2023-06-22T09:51:03;12.00;;;10.20;;
16906;SDS011;8570;52.380;4.654;2023-06-22T09:56:05;15.60;;;11.88;;
16906;SDS011;8570;52.380;4.654;2023-06-22T10:01:11;12.13;;;10.13;;
16906;SDS011;8570;52.380;4.654;2023-06-22T10:06:16;12.10;;;8.90;;
16906;SDS011;8570;52.380;4.654;2023-06-22T10:11:19;12.93;;;10.82;;
16906;SDS011;8570;52.380;4.654;2023-06-22T10:16:30;11.85;;;10.68;;
16906;SDS011;8570;52.380;4.654;2023-06-22T10:21:34;13.63;;;10.52;;
16906;SDS011;8570;52.380;4.654;2023-06-22T10:26:37;12.00;;;9.40;;
16906;SDS011;8570;52.380;4.654;2023-06-22T10:31:39;11.95;;;8.82;;
16906;SDS011;8570;52.380;4.654;2023-06-22T10:36:45;12.15;;;10.82;;
16906;SDS011;8570;52.380;4.654;2023-06-22T10:41:52;17.02;;;10.52;;
16906;SDS011;8570;52.380;4.654;2023-06-22T10:47:08;12.63;;;9.10;;
16906;SDS011;8570;52.380;4.654;2023-06-22T10:52:24;10.45;;;8.05;;
16906;SDS011;8570;52.380;4.654;2023-06-22T10:57:35;9.93;;;7.25;;
16906;SDS011;8570;52.380;4.654;2023-06-22T11:02:42;10.77;;;8.35;;
16906;SDS011;8570;52.380;4.654;2023-06-22T11:07:45;12.27;;;8.82;;
16906;SDS011;8570;52.380;4.654;2023-06-22T11:12:52;10.18;;;9.07;;
16906;SDS011;8570;52.380;4.654;2023-06-22T11:17:55;13.27;;;8.57;;
16906;SDS011;8570;52.380;4.654;2023-06-22T11:28:20;13.63;;;11.60;;
16906;SDS011;8570;52.380;4.654;2023-06-22T11:33:25;14.90;;;11.38;;
16906;SDS011;8570;52.380;4.654;2023-06-22T11:38:32;13.88;;;10.00;;
16906;SDS011;8570;52.380;4.654;2023-06-22T11:43:36;15.57;;;10.85;;
16906;SDS011;8570;52.380;4.654;2023-06-22T11:48:44;12.75;;;11.07;;
16906;SDS011;8570;52.380;4.654;2023-06-22T11:53:50;13.57;;;10.73;;
16906;SDS011;8570;52.380;4.654;2023-06-22T11:58:52;13.32;;;11.40;;
16906;SDS011;8570;52.380;4.654;2023-06-22T12:03:54;16.02;;;10.68;;
16906;SDS011;8570;52.380;4.654;2023-06-22T12:08:58;14.48;;;12.20;;
16906;SDS011;8570;52.380;4.654;2023-06-22T12:14:03;17.80;;;13.32;;
16906;SDS011;8570;52.380;4.654;2023-06-22T12:19:11;15.93;;;12.32;;
16906;SDS011;8570;52.380;4.654;2023-06-22T12:24:17;12.02;;;10.57;;
16906;SDS011;8570;52.380;4.654;2023-06-22T12:29:19;14.10;;;11.30;;
16906;SDS011;8570;52.380;4.654;2023-06-22T12:34:21;13.27;;;11.05;;
16906;SDS011;8570;52.380;4.654;2023-06-22T12:39:29;15.18;;;13.50;;
16906;SDS011;8570;52.380;4.654;2023-06-22T12:44:31;14.65;;;11.32;;
16906;SDS011;8570;52.380;4.654;2023-06-22T12:49:33;17.27;;;13.02;;
16906;SDS011;8570;52.380;4.654;2023-06-22T12:54:36;13.90;;;11.27;;
16906;SDS011;8570;52.380;4.654;2023-06-22T12:59:38;12.63;;;11.32;;
16906;SDS011;8570;52.380;4.654;2023-06-22T13:04:40;15.52;;;12.50;;
16906;SDS011;8570;52.380;4.654;2023-06-22T13:09:44;14.65;;;10.13;;
16906;SDS011;8570;52.380;4.654;2023-06-22T13:14:54;13.93;;;9.88;;
16906;SDS011;8570;52.380;4.654;2023-06-22T13:19:56;14.35;;;12.05;;
16906;SDS011;8570;52.380;4.654;2023-06-22T13:25:00;13.55;;;10.50;;
16906;SDS011;8570;52.380;4.654;2023-06-22T13:30:02;16.95;;;11.48;;
16906;SDS011;8570;52.380;4.654;2023-06-22T13:35:08;16.20;;;12.45;;
16906;SDS011;8570;52.380;4.654;2023-06-22T13:40:12;12.68;;;10.70;;
16906;SDS011;8570;52.380;4.654;2023-06-22T13:45:16;14.00;;;10.95;;
16906;SDS011;8570;52.380;4.654;2023-06-22T13:50:19;10.93;;;9.18;;
16906;SDS011;8570;52.380;4.654;2023-06-22T13:55:23;11.93;;;10.50;;
16906;SDS011;8570;52.380;4.654;2023-06-22T14:00:25;11.32;;;8.60;;
16906;SDS011;8570;52.380;4.654;2023-06-22T14:05:27;10.23;;;8.25;;
16906;SDS011;8570;52.380;4.654;2023-06-22T14:10:36;9.45;;;7.47;;
16906;SDS011;8570;52.380;4.654;2023-06-22T14:15:38;7.72;;;6.55;;
16906;SDS011;8570;52.380;4.654;2023-06-22T14:20:40;9.07;;;7.45;;
16906;SDS011;8570;52.380;4.654;2023-06-22T14:25:44;8.82;;;7.43;;
16906;SDS011;8570;52.380;4.654;2023-06-22T14:30:45;9.02;;;7.30;;
16906;SDS011;8570;52.380;4.654;2023-06-22T14:35:48;8.35;;;6.93;;
16906;SDS011;8570;52.380;4.654;2023-06-22T14:40:51;11.73;;;6.65;;
16906;SDS011;8570;52.380;4.654;2023-06-22T14:45:53;10.25;;;7.35;;
16906;SDS011;8570;52.380;4.654;2023-06-22T14:50:56;9.75;;;6.03;;
16906;SDS011;8570;52.380;4.654;2023-06-22T14:56:01;12.18;;;8.57;;
16906;SDS011;8570;52.380;4.654;2023-06-22T15:01:03;9.52;;;7.35;;
16906;SDS011;8570;52.380;4.654;2023-06-22T15:06:08;12.65;;;7.68;;
16906;SDS011;8570;52.380;4.654;2023-06-22T15:11:12;9.15;;;6.72;;
16906;SDS011;8570;52.380;4.654;2023-06-22T15:16:20;12.60;;;6.70;;
16906;SDS011;8570;52.380;4.654;2023-06-22T15:21:24;8.68;;;6.18;;
16906;SDS011;8570;52.380;4.654;2023-06-22T15:26:28;8.18;;;6.00;;
16906;SDS011;8570;52.380;4.654;2023-06-22T15:31:30;8.68;;;5.55;;
16906;SDS011;8570;52.380;4.654;2023-06-22T15:36:32;7.85;;;5.70;;
16906;SDS011;8570;52.380;4.654;2023-06-22T15:41:35;9.88;;;5.65;;
16906;SDS011;8570;52.380;4.654;2023-06-22T15:46:41;7.43;;;4.97;;
16906;SDS011;8570;52.380;4.654;2023-06-22T15:51:43;5.55;;;4.05;;
16906;SDS011;8570;52.380;4.654;2023-06-22T15:56:49;6.93;;;4.38;;
16906;SDS011;8570;52.380;4.654;2023-06-22T16:01:51;14.85;;;5.72;;
16906;SDS011;8570;52.380;4.654;2023-06-22T16:06:53;6.93;;;4.82;;
16906;SDS011;8570;52.380;4.654;2023-06-22T16:11:56;5.97;;;4.50;;
16906;SDS011;8570;52.380;4.654;2023-06-22T16:16:58;6.13;;;4.78;;
16906;SDS011;8570;52.380;4.654;2023-06-22T16:22:17;7.05;;;3.72;;
16906;SDS011;8570;52.380;4.654;2023-06-22T16:27:20;6.80;;;4.00;;
16906;SDS011;8570;52.380;4.654;2023-06-22T16:32:26;5.60;;;3.80;;
16906;SDS011;8570;52.380;4.654;2023-06-22T16:37:28;6.47;;;3.50;;
16906;SDS011;8570;52.380;4.654;2023-06-22T16:42:47;6.47;;;3.78;;
16906;SDS011;8570;52.380;4.654;2023-06-22T16:47:50;4.90;;;2.70;;
16906;SDS011;8570;52.380;4.654;2023-06-22T16:52:52;3.95;;;2.72;;
16906;SDS011;8570;52.380;4.654;2023-06-22T16:57:56;6.00;;;2.65;;
16906;SDS011;8570;52.380;4.654;2023-06-22T17:02:59;4.68;;;2.50;;
16906;SDS011;8570;52.380;4.654;2023-06-22T17:08:06;3.75;;;2.60;;
16906;SDS011;8570;52.380;4.654;2023-06-22T17:13:14;4.25;;;2.22;;
16906;SDS011;8570;52.380;4.654;2023-06-22T17:18:17;5.35;;;2.30;;
16906;SDS011;8570;52.380;4.654;2023-06-22T17:23:21;4.40;;;2.25;;
16906;SDS011;8570;52.380;4.654;2023-06-22T17:28:27;7.43;;;3.72;;
16906;SDS011;8570;52.380;4.654;2023-06-22T17:33:29;5.68;;;2.20;;
16906;SDS011;8570;52.380;4.654;2023-06-22T17:38:35;5.38;;;2.35;;
16906;SDS011;8570;52.380;4.654;2023-06-22T17:43:45;5.65;;;2.00;;
16906;SDS011;8570;52.380;4.654;2023-06-22T17:48:47;3.92;;;2.38;;
16906;SDS011;8570;52.380;4.654;2023-06-22T17:53:49;6.90;;;3.20;;
16906;SDS011;8570;52.380;4.654;2023-06-22T17:58:53;6.80;;;2.78;;
16906;SDS011;8570;52.380;4.654;2023-06-22T18:03:56;2.75;;;2.00;;
16906;SDS011;8570;52.380;4.654;2023-06-22T18:08:58;5.07;;;2.00;;
16906;SDS011;8570;52.380;4.654;2023-06-22T18:14:03;3.10;;;2.10;;
16906;SDS011;8570;52.380;4.654;2023-06-22T18:19:06;4.43;;;2.40;;
16906;SDS011;8570;52.380;4.654;2023-06-22T18:24:09;7.57;;;2.78;;
16906;SDS011;8570;52.380;4.654;2023-06-22T18:29:13;4.07;;;2.28;;
16906;SDS011;8570;52.380;4.654;2023-06-22T18:34:15;4.35;;;2.60;;
16906;SDS011;8570;52.380;4.654;2023-06-22T18:39:20;7.40;;;2.75;;
16906;SDS011;8570;52.380;4.654;2023-06-22T18:44:26;4.32;;;2.65;;
16906;SDS011;8570;52.380;4.654;2023-06-22T18:49:31;4.57;;;2.67;;
16906;SDS011;8570;52.380;4.654;2023-06-22T18:54:34;3.92;;;3.05;;
16906;SDS011;8570;52.380;4.654;2023-06-22T18:59:42;4.90;;;2.50;;
16906;SDS011;8570;52.380;4.654;2023-06-22T19:04:50;5.50;;;2.83;;
16906;SDS011;8570;52.380;4.654;2023-06-22T19:10:23;5.05;;;3.15;;
16906;SDS011;8570;52.380;4.654;2023-06-22T19:15:30;4.05;;;2.83;;
16906;SDS011;8570;52.380;4.654;2023-06-22T19:20:36;6.13;;;2.60;;
16906;SDS011;8570;52.380;4.654;2023-06-22T19:25:41;3.75;;;2.97;;
16906;SDS011;8570;52.380;4.654;2023-06-22T19:37:03;5.00;;;2.97;;
16906;SDS011;8570;52.380;4.654;2023-06-22T19:42:17;6.30;;;3.15;;
16906;SDS011;8570;52.380;4.654;2023-06-22T19:47:19;6.15;;;3.33;;
16906;SDS011;8570;52.380;4.654;2023-06-22T19:52:23;4.07;;;2.95;;
16906;SDS011;8570;52.380;4.654;2023-06-22T19:57:25;5.10;;;2.72;;
16906;SDS011;8570;52.380;4.654;2023-06-22T20:02:28;4.88;;;2.88;;
16906;SDS011;8570;52.380;4.654;2023-06-22T20:07:36;8.48;;;3.05;;
16906;SDS011;8570;52.380;4.654;2023-06-22T20:12:38;5.63;;;3.08;;
16906;SDS011;8570;52.380;4.654;2023-06-22T20:17:41;6.05;;;3.50;;
16906;SDS011;8570;52.380;4.654;2023-06-22T20:22:48;4.45;;;3.03;;
16906;SDS011;8570;52.380;4.654;2023-06-22T20:27:52;4.85;;;3.50;;
16906;SDS011;8570;52.380;4.654;2023-06-22T20:32:56;5.63;;;3.53;;
16906;SDS011;8570;52.380;4.654;2023-06-22T20:38:00;6.32;;;3.53;;
16906;SDS011;8570;52.380;4.654;2023-06-22T20:43:01;5.85;;;3.55;;
16906;SDS011;8570;52.380;4.654;2023-06-22T20:48:04;5.18;;;4.07;;
16906;SDS011;8570;52.380;4.654;2023-06-22T20:53:10;6.43;;;4.20;;
16906;SDS011;8570;52.380;4.654;2023-06-22T20:58:11;5.00;;;4.47;;
16906;SDS011;8570;52.380;4.654;2023-06-22T21:03:13;5.65;;;4.47;;
16906;SDS011;8570;52.380;4.654;2023-06-22T21:08:17;5.30;;;4.28;;
16906;SDS011;8570;52.380;4.654;2023-06-22T21:13:21;9.50;;;4.65;;
16906;SDS011;8570;52.380;4.654;2023-06-22T21:18:23;7.78;;;5.15;;
16906;SDS011;8570;52.380;4.654;2023-06-22T21:23:27;6.18;;;4.80;;
16906;SDS011;8570;52.380;4.654;2023-06-22T21:28:33;7.78;;;4.82;;
16906;SDS011;8570;52.380;4.654;2023-06-22T21:33:35;5.93;;;4.47;;
16906;SDS011;8570;52.380;4.654;2023-06-22T21:38:42;7.47;;;5.45;;
16906;SDS011;8570;52.380;4.654;2023-06-22T21:43:44;7.82;;;5.03;;
16906;SDS011;8570;52.380;4.654;2023-06-22T21:48:46;5.75;;;4.40;;
16906;SDS011;8570;52.380;4.654;2023-06-22T21:53:50;5.82;;;3.80;;
16906;SDS011;8570;52.380;4.654;2023-06-22T21:58:59;6.65;;;4.18;;
16906;SDS011;8570;52.380;4.654;2023-06-22T22:04:01;7.07;;;4.00;;
16906;SDS011;8570;52.380;4.654;2023-06-22T22:09:12;6.53;;;3.90;;
16906;SDS011;8570;52.380;4.654;2023-06-22T22:14:19;4.95;;;4.18;;
16906;SDS011;8570;52.380;4.654;2023-06-22T22:19:21;5.32;;;4.03;;
16906;SDS011;8570;52.380;4.654;2023-06-22T22:24:27;7.32;;;4.47;;
16906;SDS011;8570;52.380;4.654;2023-06-22T22:29:29;7.45;;;5.20;;
16906;SDS011;8570;52.380;4.654;2023-06-22T22:34:31;6.13;;;4.50;;
16906;SDS011;8570;52.380;4.654;2023-06-22T22:39:38;7.15;;;5.32;;
16906;SDS011;8570;52.380;4.654;2023-06-22T22:44:40;6.35;;;5.28;;
16906;SDS011;8570;52.380;4.654;2023-06-22T22:49:44;10.32;;;7.20;;
16906;SDS011;8570;52.380;4.654;2023-06-22T22:54:48;13.02;;;8.98;;
16906;SDS011;8570;52.380;4.654;2023-06-22T22:59:53;11.50;;;8.68;;
16906;SDS011;8570;52.380;4.654;2023-06-22T23:04:55;16.02;;;9.73;;
16906;SDS011;8570;52.380;4.654;2023-06-22T23:09:59;9.93;;;7.80;;
16906;SDS011;8570;52.380;4.654;2023-06-22T23:15:03;9.27;;;6.78;;
16906;SDS011;8570;52.380;4.654;2023-06-22T23:20:12;10.88;;;7.32;;
16906;SDS011;8570;52.380;4.654;2023-06-22T23:25:21;9.48;;;6.60;;
16906;SDS011;8570;52.380;4.654;2023-06-22T23:30:29;10.80;;;7.28;;
16906;SDS011;8570;52.380;4.654;2023-06-22T23:35:41;10.20;;;7.45;;
16906;SDS011;8570;52.380;4.654;2023-06-22T23:41:08;10.93;;;7.88;;
16906;SDS011;8570;52.380;4.654;2023-06-22T23:46:16;14.40;;;9.13;;
16906;SDS011;8570;52.380;4.654;2023-06-22T23:51:35;13.40;;;12.00;;
16906;SDS011;8570;52.380;4.654;2023-06-22T23:56:44;18.95;;;16.05;;
